sensor_id;sensor_type;location;lat;lon;timestamp;pressure;altitude;pressure_sealevel;temperature
70415;BMP280;57837;52.064;113.478;2023-07-13T00:02:48;92889.38;;;39.81
70415;BMP280;57837;52.064;113.478;2023-07-13T00:06:01;92885.94;;;39.76
70415;BMP280;57837;52.064;113.478;2023-07-13T00:09:05;92886.66;;;39.81
70415;BMP280;57837;52.064;113.478;2023-07-13T00:12:27;92892.16;;;40.51
70415;BMP280;57837;52.064;113.478;2023-07-13T00:15:32;92901.06;;;40.63
70415;BMP280;57837;52.064;113.478;2023-07-13T00:18:36;92896.19;;;39.82
70415;BMP280;57837;52.064;113.478;2023-07-13T00:21:41;92900.47;;;39.45
70415;BMP280;57837;52.064;113.478;2023-07-13T00:24:45;92900.41;;;39.39
70415;BMP280;57837;52.064;113.478;2023-07-13T00:27:50;92898.28;;;38.88
70415;BMP280;57837;52.064;113.478;2023-07-13T00:30:54;92902.53;;;39.46
70415;BMP280;57837;52.064;113.478;2023-07-13T00:33:59;92894.69;;;39.69
70415;BMP280;57837;52.064;113.478;2023-07-13T00:37:03;92893.09;;;39.51
70415;BMP280;57837;52.064;113.478;2023-07-13T00:40:11;92890.63;;;39.20
70415;BMP280;57837;52.064;113.478;2023-07-13T00:43:19;92901.41;;;40.25
70415;BMP280;57837;52.064;113.478;2023-07-13T00:46:31;92896.28;;;40.58
70415;BMP280;57837;52.064;113.478;2023-07-13T00:49:37;92896.28;;;40.58
70415;BMP280;57837;52.064;113.478;2023-07-13T00:52:46;92891.28;;;41.16
70415;BMP280;57837;52.064;113.478;2023-07-13T00:55:51;92897.84;;;40.81
70415;BMP280;57837;52.064;113.478;2023-07-13T00:58:57;92900.25;;;40.46
70415;BMP280;57837;52.064;113.478;2023-07-13T01:02:03;92891.97;;;40.30
70415;BMP280;57837;52.064;113.478;2023-07-13T01:05:16;92882.72;;;40.60
70415;BMP280;57837;52.064;113.478;2023-07-13T01:08:21;92884.34;;;40.15
70415;BMP280;57837;52.064;113.478;2023-07-13T01:11:25;92887.44;;;40.53
70415;BMP280;57837;52.064;113.478;2023-07-13T01:14:31;92883.75;;;39.63
70415;BMP280;57837;52.064;113.478;2023-07-13T01:17:35;92885.03;;;39.57
70415;BMP280;57837;52.064;113.478;2023-07-13T01:20:46;92882.41;;;41.09
70415;BMP280;57837;52.064;113.478;2023-07-13T01:23:51;92876.34;;;41.17
70415;BMP280;57837;52.064;113.478;2023-07-13T01:26:55;92876.88;;;40.93
70415;BMP280;57837;52.064;113.478;2023-07-13T01:29:59;92875.09;;;41.42
70415;BMP280;57837;52.064;113.478;2023-07-13T01:33:09;92875.72;;;40.36
70415;BMP280;57837;52.064;113.478;2023-07-13T01:36:13;92871.25;;;39.95
70415;BMP280;57837;52.064;113.478;2023-07-13T01:39:16;92876.81;;;39.47
70415;BMP280;57837;52.064;113.478;2023-07-13T01:42:20;92869.47;;;40.20
70415;BMP280;57837;52.064;113.478;2023-07-13T01:45:23;92862.13;;;40.34
70415;BMP280;57837;52.064;113.478;2023-07-13T01:48:27;92866.31;;;39.78
70415;BMP280;57837;52.064;113.478;2023-07-13T01:51:31;92876.88;;;39.06
70415;BMP280;57837;52.064;113.478;2023-07-13T01:54:35;92869.22;;;38.92
70415;BMP280;57837;52.064;113.478;2023-07-13T01:57:38;92866.91;;;39.72
70415;BMP280;57837;52.064;113.478;2023-07-13T02:00:42;92867.47;;;39.09
70415;BMP280;57837;52.064;113.478;2023-07-13T02:03:45;92867.78;;;37.72
70415;BMP280;57837;52.064;113.478;2023-07-13T02:06:49;92865.22;;;38.53
70415;BMP280;57837;52.064;113.478;2023-07-13T02:09:53;92872.09;;;39.52
70415;BMP280;57837;52.064;113.478;2023-07-13T02:12:57;92860.22;;;39.81
70415;BMP280;57837;52.064;113.478;2023-07-13T02:16:01;92864.19;;;39.70
70415;BMP280;57837;52.064;113.478;2023-07-13T02:19:04;92870.72;;;39.01
70415;BMP280;57837;52.064;113.478;2023-07-13T02:22:10;92872.91;;;38.69
70415;BMP280;57837;52.064;113.478;2023-07-13T02:25:13;92874.31;;;38.72
70415;BMP280;57837;52.064;113.478;2023-07-13T02:28:18;92865.44;;;38.65
70415;BMP280;57837;52.064;113.478;2023-07-13T02:31:21;92872.31;;;38.33
70415;BMP280;57837;52.064;113.478;2023-07-13T02:34:28;92867.28;;;38.17
70415;BMP280;57837;52.064;113.478;2023-07-13T02:37:34;92872.63;;;38.51
70415;BMP280;57837;52.064;113.478;2023-07-13T02:40:38;92872.47;;;38.83
70415;BMP280;57837;52.064;113.478;2023-07-13T02:43:41;92874.56;;;38.86
70415;BMP280;57837;52.064;113.478;2023-07-13T02:46:44;92873.56;;;39.11
70415;BMP280;57837;52.064;113.478;2023-07-13T02:49:48;92861.03;;;37.73
70415;BMP280;57837;52.064;113.478;2023-07-13T02:52:51;92876.88;;;37.23
70415;BMP280;57837;52.064;113.478;2023-07-13T02:55:55;92870.00;;;37.18
70415;BMP280;57837;52.064;113.478;2023-07-13T02:58:58;92863.66;;;37.69
70415;BMP280;57837;52.064;113.478;2023-07-13T03:02:02;92862.94;;;38.00
70415;BMP280;57837;52.064;113.478;2023-07-13T03:05:06;92865.44;;;37.56
70415;BMP280;57837;52.064;113.478;2023-07-13T03:08:11;92871.88;;;37.12
70415;BMP280;57837;52.064;113.478;2023-07-13T03:11:20;92865.09;;;37.10
70415;BMP280;57837;52.064;113.478;2023-07-13T03:14:42;92862.63;;;35.63
70415;BMP280;57837;52.064;113.478;2023-07-13T03:17:46;92861.53;;;35.95
70415;BMP280;57837;52.064;113.478;2023-07-13T03:20:52;92856.94;;;36.25
70415;BMP280;57837;52.064;113.478;2023-07-13T03:23:56;92867.16;;;36.29
70415;BMP280;57837;52.064;113.478;2023-07-13T03:27:03;92855.22;;;36.64
70415;BMP280;57837;52.064;113.478;2023-07-13T03:30:10;92851.63;;;36.83
70415;BMP280;57837;52.064;113.478;2023-07-13T03:33:16;92865.66;;;35.51
70415;BMP280;57837;52.064;113.478;2023-07-13T03:36:22;92865.91;;;34.72
70415;BMP280;57837;52.064;113.478;2023-07-13T03:39:29;92859.41;;;34.58
70415;BMP280;57837;52.064;113.478;2023-07-13T03:42:33;92851.53;;;34.44
70415;BMP280;57837;52.064;113.478;2023-07-13T03:45:38;92859.28;;;33.77
70415;BMP280;57837;52.064;113.478;2023-07-13T03:48:43;92847.19;;;33.96
70415;BMP280;57837;52.064;113.478;2023-07-13T03:51:48;92858.03;;;33.80
70415;BMP280;57837;52.064;113.478;2023-07-13T03:54:55;92845.03;;;33.20
70415;BMP280;57837;52.064;113.478;2023-07-13T03:58:23;92846.97;;;32.84
70415;BMP280;57837;52.064;113.478;2023-07-13T04:01:26;92844.03;;;33.47
70415;BMP280;57837;52.064;113.478;2023-07-13T04:04:30;92843.50;;;33.32
70415;BMP280;57837;52.064;113.478;2023-07-13T04:07:34;92844.88;;;33.69
70415;BMP280;57837;52.064;113.478;2023-07-13T04:10:38;92847.50;;;33.49
70415;BMP280;57837;52.064;113.478;2023-07-13T04:13:42;92842.34;;;33.92
70415;BMP280;57837;52.064;113.478;2023-07-13T04:16:46;92843.22;;;33.79
70415;BMP280;57837;52.064;113.478;2023-07-13T04:19:49;92850.19;;;32.98
70415;BMP280;57837;52.064;113.478;2023-07-13T04:22:53;92854.84;;;32.31
70415;BMP280;57837;52.064;113.478;2023-07-13T04:25:56;92852.25;;;31.86
70415;BMP280;57837;52.064;113.478;2023-07-13T04:29:00;92849.13;;;31.47
70415;BMP280;57837;52.064;113.478;2023-07-13T04:32:04;92856.19;;;31.41
70415;BMP280;57837;52.064;113.478;2023-07-13T04:35:08;92858.94;;;31.13
70415;BMP280;57837;52.064;113.478;2023-07-13T04:38:12;92855.19;;;30.50
70415;BMP280;57837;52.064;113.478;2023-07-13T04:41:16;92857.59;;;30.05
70415;BMP280;57837;52.064;113.478;2023-07-13T04:44:20;92864.31;;;29.56
70415;BMP280;57837;52.064;113.478;2023-07-13T04:47:24;92874.91;;;28.94
70415;BMP280;57837;52.064;113.478;2023-07-13T04:50:29;92859.63;;;28.48
70415;BMP280;57837;52.064;113.478;2023-07-13T04:53:32;92864.78;;;28.11
70415;BMP280;57837;52.064;113.478;2023-07-13T04:56:37;92870.84;;;27.58
70415;BMP280;57837;52.064;113.478;2023-07-13T04:59:41;92866.97;;;27.49
70415;BMP280;57837;52.064;113.478;2023-07-13T05:02:45;92865.84;;;27.74
70415;BMP280;57837;52.064;113.478;2023-07-13T05:05:56;92870.00;;;27.77
70415;BMP280;57837;52.064;113.478;2023-07-13T05:09:01;92868.56;;;27.97
70415;BMP280;57837;52.064;113.478;2023-07-13T05:12:06;92876.41;;;28.28
70415;BMP280;57837;52.064;113.478;2023-07-13T05:15:10;92874.81;;;28.57
70415;BMP280;57837;52.064;113.478;2023-07-13T05:18:14;92865.66;;;28.60
70415;BMP280;57837;52.064;113.478;2023-07-13T05:21:18;92861.94;;;28.54
70415;BMP280;57837;52.064;113.478;2023-07-13T05:24:22;92870.41;;;28.85
70415;BMP280;57837;52.064;113.478;2023-07-13T05:27:27;92872.88;;;29.41
70415;BMP280;57837;52.064;113.478;2023-07-13T05:30:31;92867.94;;;29.49
70415;BMP280;57837;52.064;113.478;2023-07-13T05:33:37;92871.97;;;29.25
70415;BMP280;57837;52.064;113.478;2023-07-13T05:36:41;92868.03;;;29.26
70415;BMP280;57837;52.064;113.478;2023-07-13T05:39:44;92865.25;;;29.24
70415;BMP280;57837;52.064;113.478;2023-07-13T05:42:47;92873.53;;;29.41
70415;BMP280;57837;52.064;113.478;2023-07-13T05:45:53;92867.72;;;29.45
70415;BMP280;57837;52.064;113.478;2023-07-13T05:48:57;92873.53;;;29.53
70415;BMP280;57837;52.064;113.478;2023-07-13T05:52:01;92872.19;;;29.40
70415;BMP280;57837;52.064;113.478;2023-07-13T05:55:05;92865.47;;;29.65
70415;BMP280;57837;52.064;113.478;2023-07-13T05:58:09;92870.69;;;29.63
70415;BMP280;57837;52.064;113.478;2023-07-13T06:01:13;92873.25;;;29.61
70415;BMP280;57837;52.064;113.478;2023-07-13T06:04:17;92872.34;;;29.44
70415;BMP280;57837;52.064;113.478;2023-07-13T06:07:22;92863.53;;;29.05
70415;BMP280;57837;52.064;113.478;2023-07-13T06:10:25;92867.59;;;28.95
70415;BMP280;57837;52.064;113.478;2023-07-13T06:13:29;92861.75;;;29.21
70415;BMP280;57837;52.064;113.478;2023-07-13T06:16:32;92861.50;;;29.40
70415;BMP280;57837;52.064;113.478;2023-07-13T06:19:37;92856.25;;;28.94
70415;BMP280;57837;52.064;113.478;2023-07-13T06:22:40;92857.56;;;28.47
70415;BMP280;57837;52.064;113.478;2023-07-13T06:25:44;92850.75;;;27.99
70415;BMP280;57837;52.064;113.478;2023-07-13T06:28:48;92851.97;;;27.54
70415;BMP280;57837;52.064;113.478;2023-07-13T06:31:52;92854.06;;;27.34
70415;BMP280;57837;52.064;113.478;2023-07-13T06:34:55;92855.25;;;27.43
70415;BMP280;57837;52.064;113.478;2023-07-13T06:37:59;92850.63;;;27.97
70415;BMP280;57837;52.064;113.478;2023-07-13T06:41:02;92854.38;;;28.04
70415;BMP280;57837;52.064;113.478;2023-07-13T06:44:06;92853.22;;;27.74
70415;BMP280;57837;52.064;113.478;2023-07-13T06:47:09;92850.47;;;27.51
70415;BMP280;57837;52.064;113.478;2023-07-13T06:50:14;92856.47;;;27.30
70415;BMP280;57837;52.064;113.478;2023-07-13T06:53:18;92862.91;;;27.06
70415;BMP280;57837;52.064;113.478;2023-07-13T06:56:23;92853.94;;;26.80
70415;BMP280;57837;52.064;113.478;2023-07-13T06:59:26;92861.28;;;26.70
70415;BMP280;57837;52.064;113.478;2023-07-13T07:02:30;92855.94;;;26.70
70415;BMP280;57837;52.064;113.478;2023-07-13T07:05:34;92848.03;;;26.91
70415;BMP280;57837;52.064;113.478;2023-07-13T07:08:37;92871.22;;;26.70
70415;BMP280;57837;52.064;113.478;2023-07-13T07:11:41;92885.34;;;26.63
70415;BMP280;57837;52.064;113.478;2023-07-13T07:15:03;92875.44;;;26.63
70415;BMP280;57837;52.064;113.478;2023-07-13T07:18:06;92872.59;;;26.71
70415;BMP280;57837;52.064;113.478;2023-07-13T07:21:10;92876.53;;;26.70
70415;BMP280;57837;52.064;113.478;2023-07-13T07:24:13;92873.63;;;26.87
70415;BMP280;57837;52.064;113.478;2023-07-13T07:27:18;92884.53;;;26.91
70415;BMP280;57837;52.064;113.478;2023-07-13T07:30:25;92882.66;;;26.72
70415;BMP280;57837;52.064;113.478;2023-07-13T07:33:33;92885.31;;;26.72
70415;BMP280;57837;52.064;113.478;2023-07-13T07:36:37;92876.91;;;26.76
70415;BMP280;57837;52.064;113.478;2023-07-13T07:39:45;92877.03;;;26.78
70415;BMP280;57837;52.064;113.478;2023-07-13T07:43:10;92866.47;;;26.68
70415;BMP280;57837;52.064;113.478;2023-07-13T07:46:13;92874.88;;;26.55
70415;BMP280;57837;52.064;113.478;2023-07-13T07:49:18;92870.53;;;26.60
70415;BMP280;57837;52.064;113.478;2023-07-13T07:52:21;92858.16;;;26.74
70415;BMP280;57837;52.064;113.478;2023-07-13T07:55:25;92869.47;;;27.05
70415;BMP280;57837;52.064;113.478;2023-07-13T07:58:34;92866.84;;;27.69
70415;BMP280;57837;52.064;113.478;2023-07-13T08:01:40;92875.66;;;28.04
70415;BMP280;57837;52.064;113.478;2023-07-13T08:05:04;92871.38;;;27.78
70415;BMP280;57837;52.064;113.478;2023-07-13T08:08:10;92881.47;;;27.37
70415;BMP280;57837;52.064;113.478;2023-07-13T08:11:13;92877.34;;;27.03
70415;BMP280;57837;52.064;113.478;2023-07-13T08:14:20;92882.66;;;26.72
70415;BMP280;57837;52.064;113.478;2023-07-13T08:17:24;92875.97;;;26.62
70415;BMP280;57837;52.064;113.478;2023-07-13T08:20:28;92874.44;;;26.59
70415;BMP280;57837;52.064;113.478;2023-07-13T08:23:32;92881.41;;;26.64
70415;BMP280;57837;52.064;113.478;2023-07-13T08:26:35;92874.00;;;26.72
70415;BMP280;57837;52.064;113.478;2023-07-13T08:29:39;92887.84;;;26.70
70415;BMP280;57837;52.064;113.478;2023-07-13T08:32:43;92890.25;;;26.66
70415;BMP280;57837;52.064;113.478;2023-07-13T08:35:48;92900.75;;;26.45
70415;BMP280;57837;52.064;113.478;2023-07-13T08:38:52;92898.53;;;26.32
70415;BMP280;57837;52.064;113.478;2023-07-13T08:42:01;92910.00;;;26.25
70415;BMP280;57837;52.064;113.478;2023-07-13T08:48:27;92916.59;;;26.24
70415;BMP280;57837;52.064;113.478;2023-07-13T08:54:50;92928.28;;;26.50
70415;BMP280;57837;52.064;113.478;2023-07-13T08:58:00;92927.72;;;26.51
70415;BMP280;57837;52.064;113.478;2023-07-13T09:01:18;92937.13;;;26.42
70415;BMP280;57837;52.064;113.478;2023-07-13T09:04:32;92942.28;;;26.21
70415;BMP280;57837;52.064;113.478;2023-07-13T09:07:58;92943.81;;;25.96
70415;BMP280;57837;52.064;113.478;2023-07-13T09:14:37;92940.72;;;25.70
70415;BMP280;57837;52.064;113.478;2023-07-13T09:17:49;92949.50;;;25.54
70415;BMP280;57837;52.064;113.478;2023-07-13T09:21:02;92951.13;;;25.40
70415;BMP280;57837;52.064;113.478;2023-07-13T09:27:36;92963.56;;;25.01
70415;BMP280;57837;52.064;113.478;2023-07-13T09:30:54;92964.75;;;24.90
70415;BMP280;57837;52.064;113.478;2023-07-13T09:34:00;92971.94;;;24.80
70415;BMP280;57837;52.064;113.478;2023-07-13T09:37:03;92978.56;;;24.71
70415;BMP280;57837;52.064;113.478;2023-07-13T09:40:29;92986.75;;;24.66
70415;BMP280;57837;52.064;113.478;2023-07-13T09:43:34;92981.94;;;24.55
70415;BMP280;57837;52.064;113.478;2023-07-13T09:46:43;92989.88;;;24.55
70415;BMP280;57837;52.064;113.478;2023-07-13T09:49:47;92993.84;;;24.46
70415;BMP280;57837;52.064;113.478;2023-07-13T09:52:51;92991.78;;;24.45
70415;BMP280;57837;52.064;113.478;2023-07-13T09:55:57;92997.59;;;24.43
70415;BMP280;57837;52.064;113.478;2023-07-13T09:59:00;92999.78;;;24.37
70415;BMP280;57837;52.064;113.478;2023-07-13T10:02:23;93006.16;;;24.34
70415;BMP280;57837;52.064;113.478;2023-07-13T10:05:27;92996.75;;;24.23
70415;BMP280;57837;52.064;113.478;2023-07-13T10:08:31;92997.03;;;24.10
70415;BMP280;57837;52.064;113.478;2023-07-13T10:11:39;93002.59;;;24.22
70415;BMP280;57837;52.064;113.478;2023-07-13T10:14:44;93007.09;;;24.29
70415;BMP280;57837;52.064;113.478;2023-07-13T10:17:49;93003.75;;;24.46
70415;BMP280;57837;52.064;113.478;2023-07-13T10:21:11;93002.44;;;24.54
70415;BMP280;57837;52.064;113.478;2023-07-13T10:27:34;93006.56;;;24.31
70415;BMP280;57837;52.064;113.478;2023-07-13T10:30:41;93007.72;;;24.20
70415;BMP280;57837;52.064;113.478;2023-07-13T10:33:46;93004.97;;;24.10
70415;BMP280;57837;52.064;113.478;2023-07-13T10:36:49;93005.34;;;24.07
70415;BMP280;57837;52.064;113.478;2023-07-13T10:39:55;93017.50;;;24.10
70415;BMP280;57837;52.064;113.478;2023-07-13T10:43:02;93019.38;;;24.00
70415;BMP280;57837;52.064;113.478;2023-07-13T10:46:11;93023.00;;;23.87
70415;BMP280;57837;52.064;113.478;2023-07-13T10:49:17;93026.59;;;23.75
70415;BMP280;57837;52.064;113.478;2023-07-13T10:52:44;93031.25;;;23.91
70415;BMP280;57837;52.064;113.478;2023-07-13T10:59:25;93036.41;;;24.06
70415;BMP280;57837;52.064;113.478;2023-07-13T11:02:29;93030.69;;;23.93
70415;BMP280;57837;52.064;113.478;2023-07-13T11:05:33;93033.94;;;23.84
70415;BMP280;57837;52.064;113.478;2023-07-13T11:08:58;93037.81;;;23.83
70415;BMP280;57837;52.064;113.478;2023-07-13T11:12:08;93033.34;;;23.93
70415;BMP280;57837;52.064;113.478;2023-07-13T11:15:26;93038.00;;;23.85
70415;BMP280;57837;52.064;113.478;2023-07-13T11:18:31;93045.88;;;23.67
70415;BMP280;57837;52.064;113.478;2023-07-13T11:21:34;93033.44;;;23.53
70415;BMP280;57837;52.064;113.478;2023-07-13T11:24:59;93045.75;;;23.58
70415;BMP280;57837;52.064;113.478;2023-07-13T11:31:16;93055.50;;;23.48
70415;BMP280;57837;52.064;113.478;2023-07-13T11:34:33;93056.44;;;23.43
70415;BMP280;57837;52.064;113.478;2023-07-13T11:37:38;93060.66;;;23.38
70415;BMP280;57837;52.064;113.478;2023-07-13T11:40:44;93067.19;;;23.45
70415;BMP280;57837;52.064;113.478;2023-07-13T11:44:22;93061.91;;;23.45
70415;BMP280;57837;52.064;113.478;2023-07-13T11:47:25;93061.56;;;23.41
70415;BMP280;57837;52.064;113.478;2023-07-13T11:50:31;93067.38;;;23.39
70415;BMP280;57837;52.064;113.478;2023-07-13T11:53:46;93069.31;;;23.39
70415;BMP280;57837;52.064;113.478;2023-07-13T11:56:50;93072.50;;;23.37
70415;BMP280;57837;52.064;113.478;2023-07-13T11:59:55;93085.81;;;23.47
70415;BMP280;57837;52.064;113.478;2023-07-13T12:03:00;93089.88;;;23.48
70415;BMP280;57837;52.064;113.478;2023-07-13T12:06:30;93093.91;;;23.49
70415;BMP280;57837;52.064;113.478;2023-07-13T12:09:34;93096.28;;;23.37
70415;BMP280;57837;52.064;113.478;2023-07-13T12:12:50;93093.09;;;23.31
70415;BMP280;57837;52.064;113.478;2023-07-13T12:16:30;93103.88;;;23.26
70415;BMP280;57837;52.064;113.478;2023-07-13T12:19:36;93103.38;;;23.20
70415;BMP280;57837;52.064;113.478;2023-07-13T12:22:39;93105.00;;;23.15
70415;BMP280;57837;52.064;113.478;2023-07-13T12:25:44;93112.59;;;23.11
70415;BMP280;57837;52.064;113.478;2023-07-13T12:28:55;93121.94;;;23.04
70415;BMP280;57837;52.064;113.478;2023-07-13T12:31:59;93125.28;;;22.97
70415;BMP280;57837;52.064;113.478;2023-07-13T12:35:15;93128.66;;;22.90
70415;BMP280;57837;52.064;113.478;2023-07-13T12:38:18;93129.22;;;22.74
70415;BMP280;57837;52.064;113.478;2023-07-13T12:41:24;93142.09;;;22.62
70415;BMP280;57837;52.064;113.478;2023-07-13T12:44:31;93132.03;;;22.53
70415;BMP280;57837;52.064;113.478;2023-07-13T12:47:43;93143.13;;;22.51
70415;BMP280;57837;52.064;113.478;2023-07-13T12:50:48;93147.72;;;22.43
70415;BMP280;57837;52.064;113.478;2023-07-13T12:54:07;93147.53;;;22.34
70415;BMP280;57837;52.064;113.478;2023-07-13T12:57:16;93151.22;;;22.23
70415;BMP280;57837;52.064;113.478;2023-07-13T13:03:35;93153.69;;;22.06
70415;BMP280;57837;52.064;113.478;2023-07-13T13:06:41;93153.81;;;22.00
70415;BMP280;57837;52.064;113.478;2023-07-13T13:09:46;93159.78;;;21.93
70415;BMP280;57837;52.064;113.478;2023-07-13T13:12:51;93159.06;;;21.78
70415;BMP280;57837;52.064;113.478;2023-07-13T13:15:56;93162.50;;;21.65
70415;BMP280;57837;52.064;113.478;2023-07-13T13:19:17;93160.91;;;21.54
70415;BMP280;57837;52.064;113.478;2023-07-13T13:22:21;93168.72;;;21.39
70415;BMP280;57837;52.064;113.478;2023-07-13T13:25:25;93158.97;;;21.19
70415;BMP280;57837;52.064;113.478;2023-07-13T13:28:31;93162.59;;;21.08
70415;BMP280;57837;52.064;113.478;2023-07-13T13:31:35;93165.84;;;20.94
70415;BMP280;57837;52.064;113.478;2023-07-13T13:34:39;93168.88;;;20.77
70415;BMP280;57837;52.064;113.478;2023-07-13T13:37:43;93165.19;;;20.73
70415;BMP280;57837;52.064;113.478;2023-07-13T13:40:47;93168.06;;;20.61
70415;BMP280;57837;52.064;113.478;2023-07-13T13:43:51;93164.88;;;20.35
70415;BMP280;57837;52.064;113.478;2023-07-13T13:46:56;93168.03;;;20.20
70415;BMP280;57837;52.064;113.478;2023-07-13T13:50:02;93168.81;;;20.07
70415;BMP280;57837;52.064;113.478;2023-07-13T13:53:10;93164.88;;;20.01
70415;BMP280;57837;52.064;113.478;2023-07-13T13:56:15;93170.19;;;19.88
70415;BMP280;57837;52.064;113.478;2023-07-13T13:59:20;93167.75;;;19.77
70415;BMP280;57837;52.064;113.478;2023-07-13T14:02:27;93167.13;;;19.63
70415;BMP280;57837;52.064;113.478;2023-07-13T14:05:32;93177.31;;;19.53
70415;BMP280;57837;52.064;113.478;2023-07-13T14:08:36;93178.91;;;19.43
70415;BMP280;57837;52.064;113.478;2023-07-13T14:11:41;93172.66;;;19.33
70415;BMP280;57837;52.064;113.478;2023-07-13T14:14:47;93174.00;;;19.27
70415;BMP280;57837;52.064;113.478;2023-07-13T14:17:51;93180.53;;;19.20
70415;BMP280;57837;52.064;113.478;2023-07-13T14:20:55;93183.53;;;19.11
70415;BMP280;57837;52.064;113.478;2023-07-13T14:23:59;93176.06;;;19.02
70415;BMP280;57837;52.064;113.478;2023-07-13T14:27:03;93179.00;;;18.98
70415;BMP280;57837;52.064;113.478;2023-07-13T14:30:15;93187.25;;;18.89
70415;BMP280;57837;52.064;113.478;2023-07-13T14:33:20;93182.22;;;18.78
70415;BMP280;57837;52.064;113.478;2023-07-13T14:36:30;93190.16;;;18.73
70415;BMP280;57837;52.064;113.478;2023-07-13T14:39:35;93186.47;;;18.62
70415;BMP280;57837;52.064;113.478;2023-07-13T14:42:38;93191.50;;;18.60
70415;BMP280;57837;52.064;113.478;2023-07-13T14:45:48;93191.72;;;18.49
70415;BMP280;57837;52.064;113.478;2023-07-13T14:49:05;93196.59;;;18.40
70415;BMP280;57837;52.064;113.478;2023-07-13T14:52:18;93194.00;;;18.21
70415;BMP280;57837;52.064;113.478;2023-07-13T14:55:25;93196.91;;;18.17
70415;BMP280;57837;52.064;113.478;2023-07-13T14:58:29;93199.78;;;18.14
70415;BMP280;57837;52.064;113.478;2023-07-13T15:01:36;93204.19;;;18.06
70415;BMP280;57837;52.064;113.478;2023-07-13T15:04:40;93210.84;;;17.88
70415;BMP280;57837;52.064;113.478;2023-07-13T15:07:44;93210.41;;;17.84
70415;BMP280;57837;52.064;113.478;2023-07-13T15:10:48;93215.41;;;17.82
70415;BMP280;57837;52.064;113.478;2023-07-13T15:13:52;93203.31;;;17.79
70415;BMP280;57837;52.064;113.478;2023-07-13T15:16:56;93211.38;;;17.81
70415;BMP280;57837;52.064;113.478;2023-07-13T15:20:00;93220.31;;;17.91
70415;BMP280;57837;52.064;113.478;2023-07-13T15:23:04;93219.59;;;17.91
70415;BMP280;57837;52.064;113.478;2023-07-13T15:26:13;93209.56;;;17.95
70415;BMP280;57837;52.064;113.478;2023-07-13T15:29:18;93216.06;;;17.88
70415;BMP280;57837;52.064;113.478;2023-07-13T15:32:21;93219.56;;;17.96
70415;BMP280;57837;52.064;113.478;2023-07-13T15:35:27;93218.47;;;17.86
70415;BMP280;57837;52.064;113.478;2023-07-13T15:38:31;93218.53;;;17.81
70415;BMP280;57837;52.064;113.478;2023-07-13T15:41:41;93221.78;;;17.87
70415;BMP280;57837;52.064;113.478;2023-07-13T15:44:49;93222.75;;;17.89
70415;BMP280;57837;52.064;113.478;2023-07-13T15:47:53;93228.47;;;17.88
70415;BMP280;57837;52.064;113.478;2023-07-13T15:51:01;93220.31;;;17.91
70415;BMP280;57837;52.064;113.478;2023-07-13T15:54:05;93219.47;;;17.83
70415;BMP280;57837;52.064;113.478;2023-07-13T15:57:12;93221.84;;;17.81
70415;BMP280;57837;52.064;113.478;2023-07-13T16:00:25;93224.03;;;17.77
70415;BMP280;57837;52.064;113.478;2023-07-13T16:03:29;93236.72;;;17.73
70415;BMP280;57837;52.064;113.478;2023-07-13T16:06:36;93222.25;;;17.66
70415;BMP280;57837;52.064;113.478;2023-07-13T16:09:45;93230.66;;;17.59
70415;BMP280;57837;52.064;113.478;2023-07-13T16:12:50;93230.91;;;17.56
70415;BMP280;57837;52.064;113.478;2023-07-13T16:15:54;93231.19;;;17.52
70415;BMP280;57837;52.064;113.478;2023-07-13T16:19:02;93232.91;;;17.50
70415;BMP280;57837;52.064;113.478;2023-07-13T16:22:14;93227.94;;;17.46
70415;BMP280;57837;52.064;113.478;2023-07-13T16:25:22;93229.41;;;17.42
70415;BMP280;57837;52.064;113.478;2023-07-13T16:28:29;93227.53;;;17.37
70415;BMP280;57837;52.064;113.478;2023-07-13T16:31:34;93231.63;;;17.32
70415;BMP280;57837;52.064;113.478;2023-07-13T16:34:38;93228.50;;;17.39
70415;BMP280;57837;52.064;113.478;2023-07-13T16:37:44;93229.41;;;17.42
70415;BMP280;57837;52.064;113.478;2023-07-13T16:41:04;93217.19;;;17.25
70415;BMP280;57837;52.064;113.478;2023-07-13T16:44:15;93227.06;;;17.14
70415;BMP280;57837;52.064;113.478;2023-07-13T16:47:22;93225.66;;;17.07
70415;BMP280;57837;52.064;113.478;2023-07-13T16:50:33;93225.97;;;16.98
70415;BMP280;57837;52.064;113.478;2023-07-13T16:53:37;93223.69;;;16.89
70415;BMP280;57837;52.064;113.478;2023-07-13T16:56:42;93223.25;;;16.85
70415;BMP280;57837;52.064;113.478;2023-07-13T16:59:47;93218.75;;;16.80
70415;BMP280;57837;52.064;113.478;2023-07-13T17:02:51;93225.47;;;16.70
70415;BMP280;57837;52.064;113.478;2023-07-13T17:05:57;93232.34;;;16.73
70415;BMP280;57837;52.064;113.478;2023-07-13T17:09:04;93227.09;;;16.73
70415;BMP280;57837;52.064;113.478;2023-07-13T17:12:10;93235.97;;;16.64
70415;BMP280;57837;52.064;113.478;2023-07-13T17:15:14;93230.34;;;16.49
70415;BMP280;57837;52.064;113.478;2023-07-13T17:18:17;93234.94;;;16.38
70415;BMP280;57837;52.064;113.478;2023-07-13T17:21:21;93232.63;;;16.23
70415;BMP280;57837;52.064;113.478;2023-07-13T17:24:27;93240.22;;;16.15
70415;BMP280;57837;52.064;113.478;2023-07-13T17:27:32;93239.59;;;15.98
70415;BMP280;57837;52.064;113.478;2023-07-13T17:30:36;93240.78;;;15.92
70415;BMP280;57837;52.064;113.478;2023-07-13T17:33:42;93243.88;;;15.96
70415;BMP280;57837;52.064;113.478;2023-07-13T17:36:47;93247.19;;;16.02
70415;BMP280;57837;52.064;113.478;2023-07-13T17:39:51;93251.22;;;15.97
70415;BMP280;57837;52.064;113.478;2023-07-13T17:42:54;93250.03;;;15.93
70415;BMP280;57837;52.064;113.478;2023-07-13T17:45:58;93256.94;;;15.90
70415;BMP280;57837;52.064;113.478;2023-07-13T17:49:04;93262.66;;;15.83
70415;BMP280;57837;52.064;113.478;2023-07-13T17:52:09;93262.22;;;15.73